Time;durP1;ratioP1;P1;durP2;ratioP2;P2;SDS_P1;SDS_P2;PMS_P1;PMS_P2;Temp;Humidity;BMP_temperature;BMP_pressure;BME280_temperature;BME280_humidity;BME280_pressure;Samples;Min_cycle;Max_cycle;Signal;HPM_P1;HPM_P2
2022/10/10 00:00:28;;;;;;;;;;;;;;;7.81;42.27;95549.91;5020511;28;19994;-71
2022/10/10 00:02:54;;;;;;;;;;;;;;;7.87;42.32;95552.78;5021341;28;19969;-71
2022/10/10 00:05:19;;;;;;;;;;;;;;;7.88;42.27;95545.63;5022508;28;20319;-71
2022/10/10 00:07:44;;;;;;;;;;;;;;;7.77;42.44;95544.13;5020831;28;20020;-71
2022/10/10 00:10:09;;;;;;;;;;;;;;;7.62;43.24;95544.72;5022602;28;19993;-71
2022/10/10 00:12:35;;;;;;;;;;;;;;;7.20;44.76;95549.03;5020436;28;20040;-71
2022/10/10 00:15:00;;;;;;;;;;;;;;;7.48;43.86;95543.50;5020958;28;19974;-71
2022/10/10 00:17:25;;;;;;;;;;;;;;;7.38;44.09;95550.78;5020436;28;19993;-71
2022/10/10 00:19:50;;;;;;;;;;;;;;;7.54;44.17;95548.19;5020327;28;20519;-71
2022/10/10 00:22:16;;;;;;;;;;;;;;;7.65;43.80;95547.03;5021010;28;20501;-71
2022/10/10 00:24:41;;;;;;;;;;;;;;;7.63;43.39;95551.69;5021276;28;20032;-71
2022/10/10 00:27:06;;;;;;;;;;;;;;;7.68;43.27;95551.19;5020222;28;19970;-71
2022/10/10 00:29:31;;;;;;;;;;;;;;;7.49;44.05;95555.78;5020711;28;19989;-71
2022/10/10 00:31:57;;;;;;;;;;;;;;;7.58;43.82;95548.69;5002037;28;20400;-71
2022/10/10 00:34:22;;;;;;;;;;;;;;;7.54;43.66;95545.53;5021410;28;19974;-71
2022/10/10 00:36:47;;;;;;;;;;;;;;;7.66;43.51;95537.28;5019956;28;19993;-71
2022/10/10 00:39:12;;;;;;;;;;;;;;;7.67;43.10;95538.94;5019930;28;19974;-72
2022/10/10 00:41:38;;;;;;;;;;;;;;;7.50;43.50;95538.91;5001936;28;19997;-71
2022/10/10 00:44:04;;;;;;;;;;;;;;;7.36;43.65;95536.84;5020305;28;20439;-72
2022/10/10 00:46:29;;;;;;;;;;;;;;;7.37;43.58;95533.19;5020588;28;20425;-71
2022/10/10 00:48:54;;;;;;;;;;;;;;;7.42;43.37;95528.28;5001991;28;19992;-70
2022/10/10 00:51:20;;;;;;;;;;;;;;;7.38;43.52;95532.22;5019425;28;20558;-72
2022/10/10 00:53:46;;;;;;;;;;;;;;;7.29;44.54;95534.00;5020066;28;20000;-71
2022/10/10 00:56:12;;;;;;;;;;;;;;;7.25;43.59;95532.69;5001580;28;19989;-71
2022/10/10 00:58:38;;;;;;;;;;;;;;;7.35;43.27;95524.59;5002303;28;20019;-71
2022/10/10 01:01:03;;;;;;;;;;;;;;;7.33;43.59;95518.63;5002282;28;20012;-71
2022/10/10 01:03:28;;;;;;;;;;;;;;;7.39;43.44;95515.34;5020034;28;20056;-71
2022/10/10 01:05:54;;;;;;;;;;;;;;;7.33;43.40;95518.63;5019450;28;19989;-71
2022/10/10 01:08:19;;;;;;;;;;;;;;;7.24;43.53;95515.94;5019556;28;20402;-71
2022/10/10 01:11:03;;;;;;;;;;;;;;;7.14;43.73;95520.53;4985348;28;20025;-71
2022/10/10 01:13:34;;;;;;;;;;;;;;;7.08;44.76;95515.88;5019718;28;20095;-71
2022/10/10 01:16:00;;;;;;;;;;;;;;;6.97;44.62;95517.00;5001051;28;19980;-71
2022/10/10 01:18:31;;;;;;;;;;;;;;;6.95;45.26;95511.84;5019326;28;19981;-71
2022/10/10 01:21:12;;;;;;;;;;;;;;;6.85;45.22;95505.84;5018999;28;20047;-71
2022/10/10 01:23:37;;;;;;;;;;;;;;;6.89;44.71;95509.81;4984827;28;19984;-71
2022/10/10 01:26:05;;;;;;;;;;;;;;;6.79;44.25;95498.50;5019234;28;20204;-71
2022/10/10 01:28:34;;;;;;;;;;;;;;;6.73;45.15;95498.16;5018921;28;20233;-71
2022/10/10 01:30:59;;;;;;;;;;;;;;;6.60;45.64;95501.22;5017763;28;19997;-71
2022/10/10 01:33:30;;;;;;;;;;;;;;;6.58;46.23;95497.09;5003408;28;20046;-72
2022/10/10 01:35:58;;;;;;;;;;;;;;;6.53;45.76;95494.88;5001104;28;19976;-71
2022/10/10 01:38:38;;;;;;;;;;;;;;;6.48;46.03;95491.84;5001414;28;20084;-71
2022/10/10 01:41:13;;;;;;;;;;;;;;;6.46;45.87;95488.56;5000756;28;19996;-71
2022/10/10 01:43:38;;;;;;;;;;;;;;;6.36;47.78;95491.31;5001765;28;19970;-71
2022/10/10 01:46:16;;;;;;;;;;;;;;;6.19;46.53;95483.22;5019191;28;20545;-71
2022/10/10 01:48:41;;;;;;;;;;;;;;;6.16;47.55;95488.84;5001302;28;20251;-71
2022/10/10 01:51:07;;;;;;;;;;;;;;;6.33;46.77;95489.78;5000765;28;19982;-71
2022/10/10 01:53:32;;;;;;;;;;;;;;;6.23;48.60;95481.94;5019202;28;20160;-71
2022/10/10 01:56:00;;;;;;;;;;;;;;;6.20;47.17;95484.06;5018570;28;20088;-71
2022/10/10 01:59:04;;;;;;;;;;;;;;;6.16;48.52;95488.84;4999455;28;19981;-71
2022/10/10 02:01:40;;;;;;;;;;;;;;;6.05;48.19;95484.59;4917937;28;19994;-71
2022/10/10 02:04:12;;;;;;;;;;;;;;;6.02;50.35;95484.09;4902632;29;20221;-70
2022/10/10 02:06:38;;;;;;;;;;;;;;;5.88;49.79;95485.47;4959642;28;19970;-71
2022/10/10 02:09:05;;;;;;;;;;;;;;;6.04;49.92;95482.13;4999454;28;20001;-71
2022/10/10 02:11:31;;;;;;;;;;;;;;;6.01;48.51;95480.59;5001085;28;20708;-72
2022/10/10 02:13:58;;;;;;;;;;;;;;;6.06;48.21;95475.69;5000340;28;19997;-71
2022/10/10 02:16:25;;;;;;;;;;;;;;;6.02;49.18;95478.81;5001060;28;19996;-71
2022/10/10 02:18:50;;;;;;;;;;;;;;;6.04;47.53;95476.81;5000657;28;19977;-71
2022/10/10 02:21:16;;;;;;;;;;;;;;;6.07;48.25;95473.88;5018401;28;20004;-71
2022/10/10 02:23:41;;;;;;;;;;;;;;;5.99;49.05;95469.38;5000479;28;20359;-71
2022/10/10 02:26:06;;;;;;;;;;;;;;;5.99;49.51;95472.84;5001116;28;20092;-71
2022/10/10 02:28:37;;;;;;;;;;;;;;;6.07;49.58;95469.44;5019019;28;20620;-71
2022/10/10 02:31:04;;;;;;;;;;;;;;;5.98;49.38;95468.53;5004720;28;20289;-71
2022/10/10 02:33:32;;;;;;;;;;;;;;;6.01;51.45;95461.31;5022769;28;20532;-71
2022/10/10 02:35:58;;;;;;;;;;;;;;;5.97;50.85;95461.59;5004296;28;20027;-71
2022/10/10 02:38:23;;;;;;;;;;;;;;;5.89;48.91;95464.19;5004821;28;20435;-71
2022/10/10 02:40:48;;;;;;;;;;;;;;;6.00;50.67;95463.09;5001586;28;20055;-71
2022/10/10 02:43:13;;;;;;;;;;;;;;;5.65;48.85;95457.69;5004645;28;19966;-71
2022/10/10 02:45:39;;;;;;;;;;;;;;;5.86;48.70;95454.72;5024952;28;20050;-71
2022/10/10 02:48:04;;;;;;;;;;;;;;;6.02;48.44;95452.38;5004319;28;19986;-71
2022/10/10 02:50:29;;;;;;;;;;;;;;;6.17;48.75;95456.13;5006116;28;20326;-71
2022/10/10 02:52:55;;;;;;;;;;;;;;;6.13;49.60;95460.88;5003976;28;20061;-71
2022/10/10 02:55:20;;;;;;;;;;;;;;;6.09;47.19;95458.72;5022658;28;19981;-71
2022/10/10 02:57:45;;;;;;;;;;;;;;;6.14;49.02;95451.16;5022363;28;20084;-71
2022/10/10 03:00:11;;;;;;;;;;;;;;;6.16;48.80;95453.63;5019479;28;20638;-71
2022/10/10 03:02:36;;;;;;;;;;;;;;;6.19;47.25;95440.94;5022121;28;20358;-71
2022/10/10 03:05:02;;;;;;;;;;;;;;;6.25;46.90;95455.34;5021894;28;20346;-71
2022/10/10 03:07:27;;;;;;;;;;;;;;;6.30;46.78;95457.53;5022278;28;20106;-71
2022/10/10 03:09:52;;;;;;;;;;;;;;;6.27;47.04;95460.47;5021758;28;20101;-71
2022/10/10 03:12:17;;;;;;;;;;;;;;;6.12;47.00;95455.75;5021097;28;20001;-71
2022/10/10 03:14:43;;;;;;;;;;;;;;;5.91;47.68;95462.19;5021891;28;19969;-71
2022/10/10 03:17:08;;;;;;;;;;;;;;;6.00;47.60;95455.16;5025146;28;20372;-71
2022/10/10 03:19:33;;;;;;;;;;;;;;;5.98;48.37;95455.31;5022051;28;20170;-71
2022/10/10 03:21:58;;;;;;;;;;;;;;;6.00;48.93;95452.53;5024131;28;20624;-71
2022/10/10 03:24:24;;;;;;;;;;;;;;;6.09;48.49;95450.78;5021676;28;19994;-71
2022/10/10 03:26:49;;;;;;;;;;;;;;;6.12;48.41;95453.94;5023020;28;19966;-71
2022/10/10 03:29:14;;;;;;;;;;;;;;;6.08;48.25;95457.88;5021358;28;20000;-71
2022/10/10 03:31:39;;;;;;;;;;;;;;;6.10;47.79;95455.09;5021387;28;20051;-71
2022/10/10 03:34:05;;;;;;;;;;;;;;;6.20;47.90;95457.63;5021602;28;20030;-71
2022/10/10 03:36:30;;;;;;;;;;;;;;;6.13;47.85;95458.22;5021517;28;20087;-71
2022/10/10 03:38:55;;;;;;;;;;;;;;;6.18;47.76;95451.66;5018796;28;20426;-71
2022/10/10 03:41:21;;;;;;;;;;;;;;;5.92;48.51;95448.00;5017100;28;19992;-71
2022/10/10 03:43:46;;;;;;;;;;;;;;;6.19;48.11;95451.50;5002725;28;19981;-71
2022/10/10 03:46:11;;;;;;;;;;;;;;;5.97;48.27;95444.91;5021681;28;20175;-71
2022/10/10 03:48:36;;;;;;;;;;;;;;;5.91;48.79;95451.63;5020926;28;20032;-71
2022/10/10 03:51:02;;;;;;;;;;;;;;;6.12;48.03;95446.00;5020643;28;20354;-71
2022/10/10 03:53:27;;;;;;;;;;;;;;;6.12;49.15;95450.44;5002708;28;20095;-71
2022/10/10 03:55:52;;;;;;;;;;;;;;;6.17;47.87;95455.28;5003816;28;20188;-71
2022/10/10 03:58:17;;;;;;;;;;;;;;;6.28;48.08;95452.41;5020176;28;20563;-72
2022/10/10 04:00:43;;;;;;;;;;;;;;;6.35;46.75;95457.88;5018768;28;20000;-71
2022/10/10 04:03:08;;;;;;;;;;;;;;;6.34;47.00;95462.38;5021069;28;19974;-71
2022/10/10 04:05:36;;;;;;;;;;;;;;;6.28;46.95;95457.69;5021562;28;19997;-71
2022/10/10 04:08:02;;;;;;;;;;;;;;;6.34;46.65;95465.00;5002588;28;19989;-71
2022/10/10 04:10:27;;;;;;;;;;;;;;;6.32;46.70;95459.03;5020703;28;19993;-71
2022/10/10 04:12:52;;;;;;;;;;;;;;;6.28;46.47;95462.13;5020215;28;20388;-71
2022/10/10 04:15:17;;;;;;;;;;;;;;;6.22;46.47;95453.84;5020842;28;20361;-71
2022/10/10 04:17:43;;;;;;;;;;;;;;;6.21;46.34;95457.47;5023441;28;20020;-71
2022/10/10 04:20:08;;;;;;;;;;;;;;;6.18;46.22;95446.38;5002141;28;19985;-71
2022/10/10 04:22:33;;;;;;;;;;;;;;;6.16;46.10;95453.63;5022363;28;20088;-71
2022/10/10 04:24:58;;;;;;;;;;;;;;;6.11;46.37;95454.94;5020531;28;20170;-71
2022/10/10 04:27:24;;;;;;;;;;;;;;;6.09;46.41;95456.06;5020637;28;19981;-71
2022/10/10 04:29:49;;;;;;;;;;;;;;;6.10;46.52;95449.78;5023245;28;20012;-71
2022/10/10 04:32:14;;;;;;;;;;;;;;;6.15;46.74;95454.63;5019758;28;19993;-71
2022/10/10 04:34:39;;;;;;;;;;;;;;;6.06;47.30;95457.19;5022553;28;19969;-71
2022/10/10 04:37:05;;;;;;;;;;;;;;;6.05;47.20;95457.38;5017896;28;20059;-71
2022/10/10 04:39:30;;;;;;;;;;;;;;;6.04;47.62;95450.41;5018013;28;20002;-72
2022/10/10 04:41:55;;;;;;;;;;;;;;;6.11;47.76;95451.44;5001679;28;20454;-70
2022/10/10 04:44:21;;;;;;;;;;;;;;;6.17;47.60;95447.34;5001890;28;20330;-71
2022/10/10 04:46:46;;;;;;;;;;;;;;;6.23;47.44;95454.69;5020131;28;20063;-71
2022/10/10 04:49:11;;;;;;;;;;;;;;;6.20;47.76;95450.53;5022983;28;20012;-71
2022/10/10 04:51:36;;;;;;;;;;;;;;;6.22;47.79;95451.19;5019796;28;19997;-71
2022/10/10 04:54:02;;;;;;;;;;;;;;;6.31;48.10;95445.97;5022529;28;20096;-71
2022/10/10 04:56:27;;;;;;;;;;;;;;;6.31;47.78;95459.19;5021897;28;20044;-71
2022/10/10 04:58:52;;;;;;;;;;;;;;;6.31;47.81;95453.91;5023161;28;19973;-71
2022/10/10 05:01:17;;;;;;;;;;;;;;;6.36;47.50;95465.66;5019228;28;20433;-71
2022/10/10 05:03:43;;;;;;;;;;;;;;;6.27;47.86;95457.84;5019444;28;19973;-71
2022/10/10 05:06:08;;;;;;;;;;;;;;;6.35;47.96;95457.88;5019671;28;19969;-71
2022/10/10 05:08:33;;;;;;;;;;;;;;;6.38;47.90;95447.84;5020077;28;20059;-71
2022/10/10 05:10:58;;;;;;;;;;;;;;;6.35;48.23;95447.31;5018687;28;19989;-71
2022/10/10 05:13:24;;;;;;;;;;;;;;;6.31;48.43;95443.31;5018282;28;20248;-72
2022/10/10 05:15:50;;;;;;;;;;;;;;;6.33;48.05;95447.47;5018691;28;19969;-71
2022/10/10 05:18:15;;;;;;;;;;;;;;;6.36;47.88;95439.22;5001470;28;20144;-70
2022/10/10 05:20:42;;;;;;;;;;;;;;;6.38;47.90;95436.44;5018536;28;19981;-71
2022/10/10 05:23:07;;;;;;;;;;;;;;;6.36;47.44;95438.41;5019424;28;20361;-71
2022/10/10 05:25:33;;;;;;;;;;;;;;;6.37;47.29;95442.72;5017286;28;20291;-71
2022/10/10 05:27:58;;;;;;;;;;;;;;;6.37;47.23;95434.78;5018620;28;20434;-71
2022/10/10 05:30:23;;;;;;;;;;;;;;;6.37;47.04;95434.78;5018325;28;20055;-71
2022/10/10 05:32:48;;;;;;;;;;;;;;;6.32;47.23;95442.34;5018526;28;20350;-71
2022/10/10 05:35:14;;;;;;;;;;;;;;;6.32;47.43;95439.72;5019486;28;19969;-71
2022/10/10 05:37:39;;;;;;;;;;;;;;;6.36;47.05;95443.72;5018876;28;20681;-71
2022/10/10 05:40:04;;;;;;;;;;;;;;;6.32;47.16;95447.66;5016860;28;19985;-71
2022/10/10 05:42:30;;;;;;;;;;;;;;;6.29;47.41;95437.38;5001629;28;19970;-71
2022/10/10 05:44:55;;;;;;;;;;;;;;;6.28;47.39;95449.75;5018651;28;20391;-71
2022/10/10 05:47:20;;;;;;;;;;;;;;;6.35;47.70;95452.59;5019339;28;20652;-71
2022/10/10 05:49:45;;;;;;;;;;;;;;;6.37;47.60;95448.00;5018555;28;20000;-71
2022/10/10 05:52:11;;;;;;;;;;;;;;;6.50;47.42;95455.56;4997389;28;20456;-71
2022/10/10 05:54:36;;;;;;;;;;;;;;;6.45;47.45;95447.22;5019486;28;20034;-71
2022/10/10 05:57:01;;;;;;;;;;;;;;;6.42;47.51;95450.19;5021250;28;19989;-71
2022/10/10 05:59:29;;;;;;;;;;;;;;;6.41;47.68;95454.63;5020896;28;19977;-71
2022/10/10 06:01:55;;;;;;;;;;;;;;;6.47;47.98;95461.94;5019085;28;20513;-71
2022/10/10 06:04:20;;;;;;;;;;;;;;;6.46;48.67;95465.56;5018438;28;20085;-71
2022/10/10 06:06:45;;;;;;;;;;;;;;;6.62;47.75;95475.47;5019118;28;20072;-70
2022/10/10 06:09:11;;;;;;;;;;;;;;;6.70;48.34;95469.38;5017992;28;20040;-71
2022/10/10 06:11:36;;;;;;;;;;;;;;;6.83;47.85;95470.78;5019529;28;19989;-71
2022/10/10 06:14:01;;;;;;;;;;;;;;;6.89;47.77;95467.47;5017996;28;20036;-71
2022/10/10 06:16:26;;;;;;;;;;;;;;;6.95;47.80;95468.66;5018692;28;20543;-71
2022/10/10 06:18:52;;;;;;;;;;;;;;;7.09;47.49;95470.72;5001020;28;19972;-71
2022/10/10 06:21:17;;;;;;;;;;;;;;;7.10;47.88;95469.72;5014608;28;20510;-71
2022/10/10 06:23:42;;;;;;;;;;;;;;;7.24;47.61;95476.22;5018391;28;20076;-71
2022/10/10 06:26:08;;;;;;;;;;;;;;;7.34;47.68;95477.94;5018893;28;20103;-71
2022/10/10 06:28:34;;;;;;;;;;;;;;;7.39;47.94;95480.91;4997643;28;20515;-71
2022/10/10 06:31:00;;;;;;;;;;;;;;;7.50;47.64;95471.81;5017720;28;19982;-71
2022/10/10 06:33:25;;;;;;;;;;;;;;;7.51;47.57;95476.13;4995344;28;20594;-71
2022/10/10 06:35:51;;;;;;;;;;;;;;;7.65;47.82;95474.69;5017807;28;20054;-72
2022/10/10 06:38:16;;;;;;;;;;;;;;;7.76;47.52;95477.00;4999628;28;20004;-71
2022/10/10 06:40:41;;;;;;;;;;;;;;;7.96;46.98;95473.25;5019253;28;20055;-72
2022/10/10 06:43:10;;;;;;;;;;;;;;;8.01;47.17;95485.03;5000769;28;20148;-73
2022/10/10 06:45:36;;;;;;;;;;;;;;;8.07;46.89;95488.00;5015990;28;19989;-72
2022/10/10 06:48:04;;;;;;;;;;;;;;;8.16;46.74;95487.03;5018667;28;19997;-72
2022/10/10 06:50:29;;;;;;;;;;;;;;;8.30;46.97;95486.34;4998925;28;20246;-73
2022/10/10 06:52:55;;;;;;;;;;;;;;;8.44;46.53;95479.53;5015638;28;20407;-72
2022/10/10 06:55:20;;;;;;;;;;;;;;;8.55;46.64;95481.03;5017974;28;19973;-72
2022/10/10 06:57:45;;;;;;;;;;;;;;;8.65;46.40;95485.31;5019394;28;20527;-72
2022/10/10 07:00:11;;;;;;;;;;;;;;;8.74;46.12;95483.47;5019652;28;20046;-72
2022/10/10 07:02:39;;;;;;;;;;;;;;;8.88;46.36;95482.75;5025213;28;20519;-72
2022/10/10 07:05:05;;;;;;;;;;;;;;;9.10;45.90;95490.19;5019032;28;19992;-72
2022/10/10 07:07:30;;;;;;;;;;;;;;;9.19;45.40;95487.31;5017168;28;19970;-72
2022/10/10 07:09:55;;;;;;;;;;;;;;;9.34;45.26;95483.94;5017388;28;19998;-72
2022/10/10 07:12:21;;;;;;;;;;;;;;;9.37;45.82;95491.56;5018575;28;20067;-72
2022/10/10 07:14:46;;;;;;;;;;;;;;;9.27;45.73;95491.78;5003066;28;20091;-72
2022/10/10 07:17:11;;;;;;;;;;;;;;;9.41;46.11;95492.03;5011458;28;20463;-72
2022/10/10 07:19:37;;;;;;;;;;;;;;;9.54;46.07;95492.31;5007646;28;20329;-73
2022/10/10 07:22:02;;;;;;;;;;;;;;;9.63;45.24;95486.94;5021962;28;20056;-73
2022/10/10 07:24:27;;;;;;;;;;;;;;;9.49;45.61;95497.34;5002132;28;20000;-74
2022/10/10 07:26:54;;;;;;;;;;;;;;;9.34;45.37;95497.22;5019261;28;19965;-73
2022/10/10 07:29:20;;;;;;;;;;;;;;;9.32;46.22;95502.72;5022657;28;19996;-73
2022/10/10 07:31:45;;;;;;;;;;;;;;;9.55;44.19;95499.28;5025717;28;20041;-73
2022/10/10 07:34:10;;;;;;;;;;;;;;;9.77;44.13;95498.66;5019892;28;20016;-73
2022/10/10 07:36:37;;;;;;;;;;;;;;;9.56;45.28;95502.78;5019265;28;19985;-73
2022/10/10 07:39:02;;;;;;;;;;;;;;;9.66;44.82;95502.56;5017507;28;20462;-71
2022/10/10 07:41:27;;;;;;;;;;;;;;;10.06;43.84;95498.00;5021688;28;20005;-70
2022/10/10 07:43:53;;;;;;;;;;;;;;;9.17;45.79;95507.94;5002793;28;20409;-70
2022/10/10 07:46:18;;;;;;;;;;;;;;;9.66;45.27;95506.03;5021847;28;19973;-70
2022/10/10 07:48:44;;;;;;;;;;;;;;;10.07;44.10;95498.84;5019929;28;19989;-71
2022/10/10 07:51:09;;;;;;;;;;;;;;;10.30;43.31;95496.13;5005054;28;20565;-71
2022/10/10 07:53:34;;;;;;;;;;;;;;;10.57;42.90;95487.78;5004458;28;19996;-70
2022/10/10 07:56:02;;;;;;;;;;;;;;;10.77;42.86;95492.56;5004770;28;20243;-70
2022/10/10 07:58:27;;;;;;;;;;;;;;;10.32;43.66;95495.97;5003489;28;20050;-70
2022/10/10 08:01:00;;;;;;;;;;;;;;;10.79;43.42;95496.72;5022648;28;20518;-70
2022/10/10 08:03:25;;;;;;;;;;;;;;;11.04;42.29;95491.09;4999157;28;19970;-71
2022/10/10 08:05:50;;;;;;;;;;;;;;;10.96;42.73;95496.53;5022894;28;19989;-70
2022/10/10 08:08:16;;;;;;;;;;;;;;;11.44;42.07;95492.66;5023158;28;20066;-70
2022/10/10 08:10:41;;;;;;;;;;;;;;;11.39;41.48;95498.53;5020203;28;20120;-71
2022/10/10 08:13:07;;;;;;;;;;;;;;;11.39;41.39;95499.38;5021498;28;19993;-70
2022/10/10 08:15:32;;;;;;;;;;;;;;;11.62;41.84;95500.25;5023940;28;19972;-70
2022/10/10 08:17:57;;;;;;;;;;;;;;;11.75;40.62;95494.25;5019739;28;19985;-70
2022/10/10 08:20:22;;;;;;;;;;;;;;;11.59;42.24;95490.78;5021737;28;20471;-70
2022/10/10 08:22:47;;;;;;;;;;;;;;;10.81;43.91;95502.66;5020796;28;19996;-70
2022/10/10 08:25:13;;;;;;;;;;;;;;;11.26;43.66;95497.38;5019761;28;19992;-70
2022/10/10 08:27:38;;;;;;;;;;;;;;;10.90;44.50;95510.56;5017945;28;20080;-70
2022/10/10 08:30:03;;;;;;;;;;;;;;;12.13;41.95;95509.22;5019746;28;20040;-70
2022/10/10 08:32:29;;;;;;;;;;;;;;;10.87;44.61;95517.94;5019776;28;20038;-70
2022/10/10 08:34:54;;;;;;;;;;;;;;;11.74;42.39;95503.25;5020018;28;19985;-70
2022/10/10 08:37:19;;;;;;;;;;;;;;;12.25;41.28;95506.88;5019951;28;20373;-70
2022/10/10 08:39:44;;;;;;;;;;;;;;;12.00;41.36;95512.56;5019527;28;20254;-70
2022/10/10 08:42:13;;;;;;;;;;;;;;;12.60;40.87;95500.78;5002198;28;20009;-71
2022/10/10 08:44:43;;;;;;;;;;;;;;;10.82;44.21;95507.00;5003596;28;20038;-71
2022/10/10 08:47:08;;;;;;;;;;;;;;;12.23;41.96;95515.06;5003107;28;20056;-70
2022/10/10 08:49:35;;;;;;;;;;;;;;;12.96;39.71;95507.00;5018838;28;20076;-71
2022/10/10 08:52:02;;;;;;;;;;;;;;;13.07;40.26;95506.50;5001157;28;20582;-71
2022/10/10 08:54:27;;;;;;;;;;;;;;;13.50;39.21;95510.81;5001480;28;20016;-70
2022/10/10 08:56:54;;;;;;;;;;;;;;;13.33;38.65;95514.84;5001176;28;20001;-70
2022/10/10 08:59:20;;;;;;;;;;;;;;;12.90;39.97;95513.97;5001789;28;19975;-71
2022/10/10 09:01:45;;;;;;;;;;;;;;;13.37;38.48;95511.59;5019783;28;20361;-70
2022/10/10 09:04:14;;;;;;;;;;;;;;;12.58;39.98;95524.22;5019273;28;20087;-70
2022/10/10 09:06:45;;;;;;;;;;;;;;;12.61;41.10;95510.47;5000975;28;20020;-70
2022/10/10 09:09:29;;;;;;;;;;;;;;;9.80;47.10;95527.56;5001381;28;20441;-70
2022/10/10 09:11:58;;;;;;;;;;;;;;;11.62;43.01;95511.75;5020055;28;20381;-70
2022/10/10 09:14:26;;;;;;;;;;;;;;;13.31;39.65;95502.50;5001148;28;19979;-70
2022/10/10 09:16:51;;;;;;;;;;;;;;;11.42;43.99;95516.03;5019436;28;19997;-70
2022/10/10 09:19:23;;;;;;;;;;;;;;;11.02;46.53;95521.59;5019720;28;19966;-70
2022/10/10 09:21:52;;;;;;;;;;;;;;;12.76;39.89;95507.69;5000581;28;20035;-70
2022/10/10 09:24:22;;;;;;;;;;;;;;;12.45;43.03;95514.25;5000973;28;19985;-71
2022/10/10 09:26:49;;;;;;;;;;;;;;;13.21;41.52;95511.91;5018210;28;19969;-70
2022/10/10 09:29:14;;;;;;;;;;;;;;;13.61;40.46;95517.44;5001440;28;20001;-70
2022/10/10 09:31:50;;;;;;;;;;;;;;;13.65;40.78;95505.31;5018528;28;19982;-71
2022/10/10 09:34:29;;;;;;;;;;;;;;;13.63;40.48;95522.59;5003000;28;20021;-70
2022/10/10 09:36:59;;;;;;;;;;;;;;;13.95;40.22;95515.72;5002760;28;20036;-71
2022/10/10 09:39:31;;;;;;;;;;;;;;;14.16;40.34;95515.78;5002394;28;20021;-70
2022/10/10 09:41:57;;;;;;;;;;;;;;;14.70;39.05;95510.44;5019187;28;20549;-70
2022/10/10 09:44:22;;;;;;;;;;;;;;;13.10;42.03;95516.78;5003828;28;20012;-70
2022/10/10 09:46:47;;;;;;;;;;;;;;;13.65;40.95;95521.38;5020859;28;20483;-71
2022/10/10 09:49:13;;;;;;;;;;;;;;;14.13;39.61;95525.03;5018061;28;20377;-70
2022/10/10 09:51:38;;;;;;;;;;;;;;;12.34;43.68;95523.59;5017696;28;19985;-70
2022/10/10 09:54:04;;;;;;;;;;;;;;;12.86;43.19;95516.22;5019465;28;19973;-70
2022/10/10 09:56:48;;;;;;;;;;;;;;;13.85;42.36;95528.66;5000921;28;19990;-70
2022/10/10 09:59:33;;;;;;;;;;;;;;;14.72;39.70;95533.31;5016668;28;19969;-70
2022/10/10 10:02:01;;;;;;;;;;;;;;;14.04;40.44;95527.06;5018357;28;19989;-70
2022/10/10 10:04:30;;;;;;;;;;;;;;;14.48;40.29;95518.69;5018772;28;20098;-70
2022/10/10 10:07:06;;;;;;;;;;;;;;;14.07;40.99;95520.47;4999669;28;20028;-70
2022/10/10 10:09:31;;;;;;;;;;;;;;;14.81;39.94;95509.03;5018598;28;20356;-70
2022/10/10 10:11:56;;;;;;;;;;;;;;;13.91;41.19;95511.78;5018058;28;20091;-70
2022/10/10 10:14:25;;;;;;;;;;;;;;;14.45;40.53;95519.91;5000575;28;19968;-70
2022/10/10 10:16:51;;;;;;;;;;;;;;;15.33;38.85;95511.00;5018573;28;20264;-71
2022/10/10 10:19:37;;;;;;;;;;;;;;;15.56;38.93;95515.88;5000904;28;19964;-71
2022/10/10 10:22:02;;;;;;;;;;;;;;;15.36;38.72;95515.91;5017345;28;19996;-71
2022/10/10 10:24:28;;;;;;;;;;;;;;;15.06;39.55;95522.59;5020178;28;19997;-71
2022/10/10 10:26:53;;;;;;;;;;;;;;;14.56;41.66;95526.53;5018095;28;20023;-71
2022/10/10 10:29:26;;;;;;;;;;;;;;;14.82;40.97;95526.78;5017212;28;20028;-70
2022/10/10 10:31:59;;;;;;;;;;;;;;;16.12;38.99;95526.97;5016798;28;19993;-70
2022/10/10 10:34:31;;;;;;;;;;;;;;;15.86;37.63;95531.47;5000340;28;19969;-72
2022/10/10 10:36:59;;;;;;;;;;;;;;;16.09;37.87;95524.72;5018620;28;20204;-71
2022/10/10 10:39:27;;;;;;;;;;;;;;;15.82;37.95;95524.03;5000297;28;19965;-71
2022/10/10 10:42:01;;;;;;;;;;;;;;;15.41;38.98;95524.19;5000399;28;19986;-71
2022/10/10 10:44:29;;;;;;;;;;;;;;;15.84;38.18;95520.09;5000149;28;20029;-71
2022/10/10 10:47:13;;;;;;;;;;;;;;;15.55;38.78;95519.59;4999442;28;19972;-71
2022/10/10 10:49:47;;;;;;;;;;;;;;;14.47;40.43;95538.47;5020160;28;19989;-72
2022/10/10 10:52:22;;;;;;;;;;;;;;;16.16;36.21;95522.00;5020897;28;20360;-71
2022/10/10 10:54:56;;;;;;;;;;;;;;;16.67;36.90;95530.16;5008409;28;20343;-71
2022/10/10 10:57:21;;;;;;;;;;;;;;;15.24;39.36;95527.28;5019886;28;21045;-70
2022/10/10 10:59:46;;;;;;;;;;;;;;;15.27;40.06;95533.28;5017488;28;20045;-70
2022/10/10 11:02:32;;;;;;;;;;;;;;;16.16;38.77;95530.06;5021751;28;19972;-70
2022/10/10 11:05:13;;;;;;;;;;;;;;;16.12;38.46;95529.66;5002814;28;19994;-70
2022/10/10 11:07:56;;;;;;;;;;;;;;;15.53;38.69;95534.25;5021824;28;19964;-70
2022/10/10 11:10:27;;;;;;;;;;;;;;;15.26;39.75;95537.00;4999620;28;20059;-70
2022/10/10 11:12:52;;;;;;;;;;;;;;;15.18;39.60;95540.72;5001367;28;20005;-70
2022/10/10 11:15:18;;;;;;;;;;;;;;;15.52;38.71;95537.94;4983536;28;19975;-70
2022/10/10 11:17:49;;;;;;;;;;;;;;;15.83;38.00;95541.78;5001459;28;19994;-70
2022/10/10 11:20:20;;;;;;;;;;;;;;;15.53;38.30;95551.16;5000155;28;20404;-70
2022/10/10 11:22:50;;;;;;;;;;;;;;;15.33;38.15;95543.19;5002052;28;19966;-70
2022/10/10 11:25:18;;;;;;;;;;;;;;;14.36;39.51;95552.47;5001667;28;20076;-69
2022/10/10 11:27:52;;;;;;;;;;;;;;;13.70;40.66;95558.22;5000608;28;20088;-70
2022/10/10 11:30:22;;;;;;;;;;;;;;;14.39;39.94;95550.22;5020837;28;20062;-70
2022/10/10 11:32:55;;;;;;;;;;;;;;;14.92;37.59;95542.44;5001389;28;20040;-71
2022/10/10 11:35:25;;;;;;;;;;;;;;;13.60;39.46;95565.78;5001048;28;19984;-71
2022/10/10 11:37:55;;;;;;;;;;;;;;;15.00;37.16;95544.06;5002944;28;20072;-71
2022/10/10 11:40:50;;;;;;;;;;;;;;;14.28;37.53;95556.97;5017214;28;20652;-71
2022/10/10 11:43:38;;;;;;;;;;;;;;;14.87;36.04;95553.75;4997862;28;19973;-70
2022/10/10 11:46:07;;;;;;;;;;;;;;;14.40;38.27;95551.84;4974765;28;20010;-70
2022/10/10 11:48:38;;;;;;;;;;;;;;;13.86;38.02;95559.72;5002271;28;20232;-70
2022/10/10 11:51:07;;;;;;;;;;;;;;;15.20;32.89;95552.06;5020896;28;19989;-71
2022/10/10 11:53:36;;;;;;;;;;;;;;;14.08;36.52;95554.28;4987664;28;19990;-70
2022/10/10 11:56:07;;;;;;;;;;;;;;;15.07;35.32;95550.22;5002725;28;20008;-71
2022/10/10 11:58:34;;;;;;;;;;;;;;;15.34;33.83;95545.63;5000353;28;20452;-70
2022/10/10 12:01:01;;;;;;;;;;;;;;;15.11;34.13;95551.47;4993328;28;19990;-71
2022/10/10 12:03:26;;;;;;;;;;;;;;;15.48;31.51;95561.69;5001174;28;19981;-70
2022/10/10 12:05:54;;;;;;;;;;;;;;;15.06;33.21;95557.44;5018588;28;19998;-72
2022/10/10 12:08:23;;;;;;;;;;;;;;;16.16;32.93;95551.53;5001775;28;20021;-70
2022/10/10 12:10:57;;;;;;;;;;;;;;;16.45;31.99;95560.06;5002297;28;20164;-71
2022/10/10 12:13:27;;;;;;;;;;;;;;;15.59;30.63;95555.72;5017377;28;19998;-70
2022/10/10 12:15:53;;;;;;;;;;;;;;;15.07;32.78;95550.22;5019252;28;19969;-70
2022/10/10 12:18:22;;;;;;;;;;;;;;;15.86;31.08;95550.25;5002927;28;20872;-71
2022/10/10 12:20:47;;;;;;;;;;;;;;;16.22;30.91;95549.84;5000843;28;19991;-71
2022/10/10 12:23:12;;;;;;;;;;;;;;;17.21;29.63;95539.63;5019961;28;19964;-70
2022/10/10 12:25:41;;;;;;;;;;;;;;;17.79;29.29;95549.09;5003424;28;19992;-71
2022/10/10 12:28:13;;;;;;;;;;;;;;;18.48;27.36;95547.19;5002736;28;19994;-70
2022/10/10 12:30:53;;;;;;;;;;;;;;;19.11;26.93;95546.84;5019089;28;20334;-70
2022/10/10 12:33:19;;;;;;;;;;;;;;;20.42;25.36;95544.88;5015879;28;20054;-70
2022/10/10 12:35:44;;;;;;;;;;;;;;;22.00;23.22;95551.31;5009792;28;19963;-70
2022/10/10 12:38:09;;;;;;;;;;;;;;;21.05;24.47;95547.59;5001373;28;20001;-70
2022/10/10 12:40:54;;;;;;;;;;;;;;;20.25;26.53;95551.09;5014824;28;19979;-71
2022/10/10 12:43:21;;;;;;;;;;;;;;;18.96;28.31;95560.75;5017790;28;19970;-70
2022/10/10 12:45:52;;;;;;;;;;;;;;;19.74;27.70;95550.91;5019877;28;20015;-71
2022/10/10 12:48:17;;;;;;;;;;;;;;;21.41;25.03;95555.41;5017682;28;20046;-72
2022/10/10 12:50:42;;;;;;;;;;;;;;;19.50;27.43;95554.44;5020963;28;19988;-71
2022/10/10 12:53:11;;;;;;;;;;;;;;;20.63;25.88;95551.50;5017298;28;19985;-70